sensor_id;sensor_type;location;lat;lon;timestamp;P1;durP1;ratioP1;P2;durP2;ratioP2
7334;SDS011;3708;42.632;23.378;2023-12-14T00:01:11;18.67;;;12.63;;
7334;SDS011;3708;42.632;23.378;2023-12-14T00:03:40;20.23;;;12.73;;
7334;SDS011;3708;42.632;23.378;2023-12-14T00:06:09;19.17;;;12.37;;
7334;SDS011;3708;42.632;23.378;2023-12-14T00:08:36;15.97;;;11.13;;
7334;SDS011;3708;42.632;23.378;2023-12-14T00:11:04;17.60;;;12.87;;
7334;SDS011;3708;42.632;23.378;2023-12-14T00:13:32;24.30;;;14.27;;
7334;SDS011;3708;42.632;23.378;2023-12-14T00:15:58;19.23;;;12.87;;
7334;SDS011;3708;42.632;23.378;2023-12-14T00:18:25;19.67;;;13.70;;
7334;SDS011;3708;42.632;23.378;2023-12-14T00:20:54;19.80;;;12.00;;
7334;SDS011;3708;42.632;23.378;2023-12-14T00:23:21;20.80;;;11.40;;
7334;SDS011;3708;42.632;23.378;2023-12-14T00:25:49;22.57;;;12.77;;
7334;SDS011;3708;42.632;23.378;2023-12-14T00:28:16;17.57;;;10.93;;
7334;SDS011;3708;42.632;23.378;2023-12-14T00:30:43;18.17;;;12.23;;
7334;SDS011;3708;42.632;23.378;2023-12-14T00:33:09;16.90;;;11.90;;
7334;SDS011;3708;42.632;23.378;2023-12-14T00:35:36;17.60;;;11.40;;
7334;SDS011;3708;42.632;23.378;2023-12-14T00:38:04;17.17;;;11.70;;
7334;SDS011;3708;42.632;23.378;2023-12-14T00:40:31;17.30;;;11.60;;
7334;SDS011;3708;42.632;23.378;2023-12-14T00:42:58;17.23;;;12.47;;
7334;SDS011;3708;42.632;23.378;2023-12-14T00:45:25;17.80;;;11.77;;
7334;SDS011;3708;42.632;23.378;2023-12-14T00:47:52;19.60;;;12.13;;
7334;SDS011;3708;42.632;23.378;2023-12-14T00:50:19;22.63;;;12.03;;
7334;SDS011;3708;42.632;23.378;2023-12-14T00:52:46;17.33;;;11.73;;
7334;SDS011;3708;42.632;23.378;2023-12-14T00:55:15;16.63;;;11.63;;
7334;SDS011;3708;42.632;23.378;2023-12-14T00:57:42;14.33;;;10.33;;
7334;SDS011;3708;42.632;23.378;2023-12-14T01:00:09;17.33;;;10.93;;
7334;SDS011;3708;42.632;23.378;2023-12-14T01:02:38;14.87;;;10.97;;
7334;SDS011;3708;42.632;23.378;2023-12-14T01:05:05;21.63;;;12.43;;
7334;SDS011;3708;42.632;23.378;2023-12-14T01:07:32;16.33;;;11.67;;
7334;SDS011;3708;42.632;23.378;2023-12-14T01:09:59;16.23;;;11.37;;
7334;SDS011;3708;42.632;23.378;2023-12-14T01:12:27;16.87;;;11.37;;
7334;SDS011;3708;42.632;23.378;2023-12-14T01:14:54;15.67;;;10.87;;
7334;SDS011;3708;42.632;23.378;2023-12-14T01:17:21;17.70;;;11.53;;
7334;SDS011;3708;42.632;23.378;2023-12-14T01:19:48;17.47;;;11.93;;
7334;SDS011;3708;42.632;23.378;2023-12-14T01:22:15;15.63;;;11.27;;
7334;SDS011;3708;42.632;23.378;2023-12-14T01:24:42;18.90;;;11.07;;
7334;SDS011;3708;42.632;23.378;2023-12-14T01:27:09;17.17;;;11.37;;
7334;SDS011;3708;42.632;23.378;2023-12-14T01:29:40;17.47;;;12.40;;
7334;SDS011;3708;42.632;23.378;2023-12-14T01:32:07;18.73;;;11.30;;
7334;SDS011;3708;42.632;23.378;2023-12-14T01:34:34;16.40;;;11.17;;
7334;SDS011;3708;42.632;23.378;2023-12-14T01:37:01;13.50;;;9.93;;
7334;SDS011;3708;42.632;23.378;2023-12-14T01:39:28;17.30;;;11.17;;
7334;SDS011;3708;42.632;23.378;2023-12-14T01:41:55;16.27;;;11.07;;
7334;SDS011;3708;42.632;23.378;2023-12-14T01:44:22;16.03;;;10.83;;
7334;SDS011;3708;42.632;23.378;2023-12-14T01:46:50;15.83;;;10.83;;
7334;SDS011;3708;42.632;23.378;2023-12-14T01:49:17;16.13;;;11.53;;
7334;SDS011;3708;42.632;23.378;2023-12-14T01:51:44;20.30;;;10.80;;
7334;SDS011;3708;42.632;23.378;2023-12-14T01:54:11;12.87;;;9.77;;
7334;SDS011;3708;42.632;23.378;2023-12-14T01:56:38;17.23;;;11.50;;
7334;SDS011;3708;42.632;23.378;2023-12-14T01:59:05;15.27;;;10.60;;
7334;SDS011;3708;42.632;23.378;2023-12-14T02:01:33;18.27;;;12.07;;
7334;SDS011;3708;42.632;23.378;2023-12-14T02:04:08;19.50;;;10.83;;
7334;SDS011;3708;42.632;23.378;2023-12-14T02:06:37;17.13;;;11.13;;
7334;SDS011;3708;42.632;23.378;2023-12-14T02:09:05;14.53;;;11.13;;
7334;SDS011;3708;42.632;23.378;2023-12-14T02:11:32;19.30;;;10.77;;
7334;SDS011;3708;42.632;23.378;2023-12-14T02:14:02;17.47;;;9.90;;
7334;SDS011;3708;42.632;23.378;2023-12-14T02:16:30;14.23;;;9.83;;
7334;SDS011;3708;42.632;23.378;2023-12-14T02:18:58;16.30;;;10.17;;
7334;SDS011;3708;42.632;23.378;2023-12-14T02:21:26;19.07;;;9.10;;
7334;SDS011;3708;42.632;23.378;2023-12-14T02:23:55;14.03;;;9.60;;
7334;SDS011;3708;42.632;23.378;2023-12-14T02:26:22;16.80;;;10.20;;
7334;SDS011;3708;42.632;23.378;2023-12-14T02:28:49;15.43;;;9.83;;
7334;SDS011;3708;42.632;23.378;2023-12-14T02:31:17;14.83;;;9.80;;
7334;SDS011;3708;42.632;23.378;2023-12-14T02:33:44;14.17;;;9.97;;
7334;SDS011;3708;42.632;23.378;2023-12-14T02:36:11;14.20;;;9.50;;
7334;SDS011;3708;42.632;23.378;2023-12-14T02:38:38;15.23;;;9.10;;
7334;SDS011;3708;42.632;23.378;2023-12-14T02:41:06;16.33;;;9.83;;
7334;SDS011;3708;42.632;23.378;2023-12-14T02:43:33;13.23;;;9.80;;
7334;SDS011;3708;42.632;23.378;2023-12-14T02:46:00;14.23;;;9.20;;
7334;SDS011;3708;42.632;23.378;2023-12-14T02:48:28;14.10;;;9.40;;
7334;SDS011;3708;42.632;23.378;2023-12-14T02:50:55;14.27;;;9.13;;
7334;SDS011;3708;42.632;23.378;2023-12-14T02:53:25;12.37;;;8.70;;
7334;SDS011;3708;42.632;23.378;2023-12-14T02:55:52;12.17;;;8.83;;
7334;SDS011;3708;42.632;23.378;2023-12-14T02:58:20;15.27;;;9.53;;
7334;SDS011;3708;42.632;23.378;2023-12-14T03:00:47;13.17;;;9.57;;
7334;SDS011;3708;42.632;23.378;2023-12-14T03:03:14;13.13;;;8.83;;
7334;SDS011;3708;42.632;23.378;2023-12-14T03:05:41;13.90;;;9.03;;
7334;SDS011;3708;42.632;23.378;2023-12-14T03:08:08;12.80;;;8.60;;
7334;SDS011;3708;42.632;23.378;2023-12-14T03:10:35;12.67;;;8.00;;
7334;SDS011;3708;42.632;23.378;2023-12-14T03:13:02;10.77;;;7.83;;
7334;SDS011;3708;42.632;23.378;2023-12-14T03:15:31;11.77;;;7.73;;
7334;SDS011;3708;42.632;23.378;2023-12-14T03:17:57;12.60;;;7.90;;
7334;SDS011;3708;42.632;23.378;2023-12-14T03:20:24;12.00;;;7.07;;
7334;SDS011;3708;42.632;23.378;2023-12-14T03:22:51;11.23;;;7.33;;
7334;SDS011;3708;42.632;23.378;2023-12-14T03:25:18;11.93;;;8.00;;
7334;SDS011;3708;42.632;23.378;2023-12-14T03:27:45;14.90;;;7.60;;
7334;SDS011;3708;42.632;23.378;2023-12-14T03:30:12;13.70;;;8.10;;
7334;SDS011;3708;42.632;23.378;2023-12-14T03:32:41;10.67;;;7.10;;
7334;SDS011;3708;42.632;23.378;2023-12-14T03:35:08;9.90;;;6.80;;
7334;SDS011;3708;42.632;23.378;2023-12-14T03:37:35;11.37;;;7.57;;
7334;SDS011;3708;42.632;23.378;2023-12-14T03:40:02;10.27;;;7.03;;
7334;SDS011;3708;42.632;23.378;2023-12-14T03:42:30;9.50;;;6.13;;
7334;SDS011;3708;42.632;23.378;2023-12-14T03:44:57;6.87;;;5.57;;
7334;SDS011;3708;42.632;23.378;2023-12-14T03:47:24;11.13;;;7.67;;
7334;SDS011;3708;42.632;23.378;2023-12-14T03:49:52;10.37;;;6.63;;
7334;SDS011;3708;42.632;23.378;2023-12-14T03:52:19;9.07;;;6.13;;
7334;SDS011;3708;42.632;23.378;2023-12-14T03:54:46;11.47;;;7.10;;
7334;SDS011;3708;42.632;23.378;2023-12-14T03:57:13;8.27;;;5.97;;
7334;SDS011;3708;42.632;23.378;2023-12-14T03:59:40;11.23;;;6.90;;
7334;SDS011;3708;42.632;23.378;2023-12-14T04:02:06;12.87;;;8.23;;
7334;SDS011;3708;42.632;23.378;2023-12-14T04:04:33;9.13;;;6.43;;
7334;SDS011;3708;42.632;23.378;2023-12-14T04:07:01;8.50;;;6.00;;
7334;SDS011;3708;42.632;23.378;2023-12-14T04:09:28;8.83;;;6.10;;
7334;SDS011;3708;42.632;23.378;2023-12-14T04:11:55;9.97;;;6.13;;
7334;SDS011;3708;42.632;23.378;2023-12-14T04:14:22;11.53;;;6.80;;
7334;SDS011;3708;42.632;23.378;2023-12-14T04:16:49;7.93;;;5.93;;
7334;SDS011;3708;42.632;23.378;2023-12-14T04:19:16;8.77;;;6.07;;
7334;SDS011;3708;42.632;23.378;2023-12-14T04:21:43;8.50;;;6.03;;
7334;SDS011;3708;42.632;23.378;2023-12-14T04:24:11;10.43;;;6.87;;
7334;SDS011;3708;42.632;23.378;2023-12-14T04:26:38;7.63;;;6.07;;
7334;SDS011;3708;42.632;23.378;2023-12-14T04:29:05;9.67;;;6.13;;
7334;SDS011;3708;42.632;23.378;2023-12-14T04:31:34;10.10;;;6.40;;
7334;SDS011;3708;42.632;23.378;2023-12-14T04:34:01;8.57;;;6.23;;
7334;SDS011;3708;42.632;23.378;2023-12-14T04:36:28;8.60;;;6.13;;
7334;SDS011;3708;42.632;23.378;2023-12-14T04:38:55;8.50;;;6.33;;
7334;SDS011;3708;42.632;23.378;2023-12-14T04:41:23;10.63;;;6.67;;
7334;SDS011;3708;42.632;23.378;2023-12-14T04:43:50;9.20;;;5.80;;
7334;SDS011;3708;42.632;23.378;2023-12-14T04:46:17;7.90;;;5.87;;
7334;SDS011;3708;42.632;23.378;2023-12-14T04:48:44;13.43;;;6.43;;
7334;SDS011;3708;42.632;23.378;2023-12-14T04:51:11;13.13;;;7.30;;
7334;SDS011;3708;42.632;23.378;2023-12-14T04:53:39;8.57;;;6.17;;
7334;SDS011;3708;42.632;23.378;2023-12-14T04:56:09;10.47;;;6.63;;
7334;SDS011;3708;42.632;23.378;2023-12-14T04:58:38;9.67;;;6.87;;
7334;SDS011;3708;42.632;23.378;2023-12-14T05:01:05;10.87;;;6.90;;
7334;SDS011;3708;42.632;23.378;2023-12-14T05:03:33;10.13;;;6.67;;
7334;SDS011;3708;42.632;23.378;2023-12-14T05:06:01;9.60;;;6.33;;
7334;SDS011;3708;42.632;23.378;2023-12-14T05:08:28;9.07;;;5.90;;
7334;SDS011;3708;42.632;23.378;2023-12-14T05:10:55;10.87;;;6.53;;
7334;SDS011;3708;42.632;23.378;2023-12-14T05:13:22;10.70;;;6.50;;
7334;SDS011;3708;42.632;23.378;2023-12-14T05:15:50;9.90;;;6.90;;
7334;SDS011;3708;42.632;23.378;2023-12-14T05:18:18;12.13;;;7.10;;
7334;SDS011;3708;42.632;23.378;2023-12-14T05:20:45;12.03;;;6.77;;
7334;SDS011;3708;42.632;23.378;2023-12-14T05:23:12;14.60;;;7.10;;
7334;SDS011;3708;42.632;23.378;2023-12-14T05:25:39;10.40;;;7.27;;
7334;SDS011;3708;42.632;23.378;2023-12-14T05:28:07;9.33;;;6.40;;
7334;SDS011;3708;42.632;23.378;2023-12-14T05:30:35;11.67;;;6.70;;
7334;SDS011;3708;42.632;23.378;2023-12-14T05:33:03;11.10;;;7.57;;
7334;SDS011;3708;42.632;23.378;2023-12-14T05:35:30;10.47;;;6.83;;
7334;SDS011;3708;42.632;23.378;2023-12-14T05:37:57;11.83;;;6.73;;
7334;SDS011;3708;42.632;23.378;2023-12-14T05:40:24;12.40;;;7.33;;
7334;SDS011;3708;42.632;23.378;2023-12-14T05:42:51;10.67;;;7.53;;
7334;SDS011;3708;42.632;23.378;2023-12-14T05:45:18;10.27;;;7.73;;
7334;SDS011;3708;42.632;23.378;2023-12-14T05:47:45;10.67;;;7.03;;
7334;SDS011;3708;42.632;23.378;2023-12-14T05:50:13;10.70;;;7.40;;
7334;SDS011;3708;42.632;23.378;2023-12-14T05:52:40;11.10;;;7.50;;
7334;SDS011;3708;42.632;23.378;2023-12-14T05:55:07;8.90;;;6.70;;
7334;SDS011;3708;42.632;23.378;2023-12-14T05:57:36;11.13;;;8.00;;
7334;SDS011;3708;42.632;23.378;2023-12-14T06:00:03;12.03;;;7.33;;
7334;SDS011;3708;42.632;23.378;2023-12-14T06:02:32;11.37;;;7.13;;
7334;SDS011;3708;42.632;23.378;2023-12-14T06:04:58;13.60;;;7.50;;
7334;SDS011;3708;42.632;23.378;2023-12-14T06:07:26;11.30;;;7.93;;
7334;SDS011;3708;42.632;23.378;2023-12-14T06:09:53;12.77;;;8.20;;
7334;SDS011;3708;42.632;23.378;2023-12-14T06:12:20;12.93;;;8.77;;
7334;SDS011;3708;42.632;23.378;2023-12-14T06:14:47;12.03;;;8.30;;
7334;SDS011;3708;42.632;23.378;2023-12-14T06:17:15;11.57;;;7.80;;
7334;SDS011;3708;42.632;23.378;2023-12-14T06:19:42;11.87;;;8.20;;
7334;SDS011;3708;42.632;23.378;2023-12-14T06:22:09;12.47;;;8.03;;
7334;SDS011;3708;42.632;23.378;2023-12-14T06:24:37;15.27;;;8.47;;
7334;SDS011;3708;42.632;23.378;2023-12-14T06:27:04;11.60;;;8.37;;
7334;SDS011;3708;42.632;23.378;2023-12-14T06:29:31;17.10;;;10.17;;
7334;SDS011;3708;42.632;23.378;2023-12-14T06:31:58;16.13;;;9.67;;
7334;SDS011;3708;42.632;23.378;2023-12-14T06:34:25;13.30;;;9.13;;
7334;SDS011;3708;42.632;23.378;2023-12-14T06:36:52;14.07;;;9.03;;
7334;SDS011;3708;42.632;23.378;2023-12-14T06:39:19;13.87;;;8.80;;
7334;SDS011;3708;42.632;23.378;2023-12-14T06:41:47;12.13;;;8.83;;
7334;SDS011;3708;42.632;23.378;2023-12-14T06:44:14;13.80;;;9.10;;
7334;SDS011;3708;42.632;23.378;2023-12-14T06:46:42;14.70;;;9.47;;
7334;SDS011;3708;42.632;23.378;2023-12-14T06:49:09;12.23;;;8.17;;
7334;SDS011;3708;42.632;23.378;2023-12-14T06:51:36;16.13;;;9.20;;
7334;SDS011;3708;42.632;23.378;2023-12-14T06:54:03;16.43;;;9.10;;
7334;SDS011;3708;42.632;23.378;2023-12-14T06:56:30;11.13;;;8.47;;
7334;SDS011;3708;42.632;23.378;2023-12-14T06:58:58;13.70;;;8.93;;
7334;SDS011;3708;42.632;23.378;2023-12-14T07:01:25;13.80;;;9.60;;
7334;SDS011;3708;42.632;23.378;2023-12-14T07:03:52;14.53;;;8.77;;
7334;SDS011;3708;42.632;23.378;2023-12-14T07:06:19;15.90;;;10.57;;
7334;SDS011;3708;42.632;23.378;2023-12-14T07:08:46;14.43;;;9.80;;
7334;SDS011;3708;42.632;23.378;2023-12-14T07:11:13;14.07;;;9.10;;
7334;SDS011;3708;42.632;23.378;2023-12-14T07:13:41;16.20;;;9.73;;
7334;SDS011;3708;42.632;23.378;2023-12-14T07:16:09;14.97;;;9.10;;
7334;SDS011;3708;42.632;23.378;2023-12-14T07:18:37;12.27;;;8.83;;
7334;SDS011;3708;42.632;23.378;2023-12-14T07:21:05;13.77;;;9.40;;
7334;SDS011;3708;42.632;23.378;2023-12-14T07:23:33;15.67;;;10.43;;
7334;SDS011;3708;42.632;23.378;2023-12-14T07:26:00;15.57;;;10.30;;
7334;SDS011;3708;42.632;23.378;2023-12-14T07:28:27;15.13;;;8.87;;
7334;SDS011;3708;42.632;23.378;2023-12-14T07:30:54;13.90;;;8.80;;
7334;SDS011;3708;42.632;23.378;2023-12-14T07:33:24;19.30;;;9.43;;
7334;SDS011;3708;42.632;23.378;2023-12-14T07:35:51;17.03;;;10.13;;
7334;SDS011;3708;42.632;23.378;2023-12-14T07:38:18;13.43;;;8.70;;
7334;SDS011;3708;42.632;23.378;2023-12-14T07:40:45;16.03;;;10.03;;
7334;SDS011;3708;42.632;23.378;2023-12-14T07:43:12;12.20;;;8.70;;
7334;SDS011;3708;42.632;23.378;2023-12-14T07:45:39;15.33;;;8.93;;
7334;SDS011;3708;42.632;23.378;2023-12-14T07:48:06;10.63;;;7.63;;
7334;SDS011;3708;42.632;23.378;2023-12-14T07:50:34;9.03;;;6.70;;
7334;SDS011;3708;42.632;23.378;2023-12-14T07:53:02;14.37;;;7.53;;
7334;SDS011;3708;42.632;23.378;2023-12-14T07:55:29;10.43;;;6.90;;
7334;SDS011;3708;42.632;23.378;2023-12-14T07:57:56;6.90;;;5.17;;
7334;SDS011;3708;42.632;23.378;2023-12-14T08:00:23;9.10;;;5.90;;
7334;SDS011;3708;42.632;23.378;2023-12-14T08:02:50;9.60;;;5.73;;
7334;SDS011;3708;42.632;23.378;2023-12-14T08:05:18;9.00;;;6.10;;
7334;SDS011;3708;42.632;23.378;2023-12-14T08:07:46;9.73;;;6.20;;
7334;SDS011;3708;42.632;23.378;2023-12-14T08:10:13;9.83;;;5.70;;
7334;SDS011;3708;42.632;23.378;2023-12-14T08:12:40;6.37;;;5.30;;
7334;SDS011;3708;42.632;23.378;2023-12-14T08:15:07;7.93;;;5.20;;
7334;SDS011;3708;42.632;23.378;2023-12-14T08:17:35;8.33;;;5.10;;
7334;SDS011;3708;42.632;23.378;2023-12-14T08:20:02;6.97;;;5.03;;
7334;SDS011;3708;42.632;23.378;2023-12-14T08:22:33;6.37;;;5.20;;
7334;SDS011;3708;42.632;23.378;2023-12-14T08:25:02;7.37;;;5.50;;
7334;SDS011;3708;42.632;23.378;2023-12-14T08:27:29;11.73;;;6.07;;
7334;SDS011;3708;42.632;23.378;2023-12-14T08:29:56;5.90;;;4.67;;
7334;SDS011;3708;42.632;23.378;2023-12-14T08:32:23;9.23;;;5.60;;
7334;SDS011;3708;42.632;23.378;2023-12-14T08:34:50;8.43;;;6.03;;
7334;SDS011;3708;42.632;23.378;2023-12-14T08:37:18;8.70;;;5.23;;
7334;SDS011;3708;42.632;23.378;2023-12-14T08:39:45;8.60;;;6.27;;
7334;SDS011;3708;42.632;23.378;2023-12-14T08:42:13;8.23;;;5.37;;
7334;SDS011;3708;42.632;23.378;2023-12-14T08:44:40;9.47;;;6.40;;
7334;SDS011;3708;42.632;23.378;2023-12-14T08:47:07;11.27;;;6.77;;
7334;SDS011;3708;42.632;23.378;2023-12-14T08:49:35;7.03;;;5.67;;
7334;SDS011;3708;42.632;23.378;2023-12-14T08:52:02;18.70;;;6.70;;
7334;SDS011;3708;42.632;23.378;2023-12-14T08:54:30;10.07;;;6.13;;
7334;SDS011;3708;42.632;23.378;2023-12-14T08:56:57;7.53;;;5.63;;
7334;SDS011;3708;42.632;23.378;2023-12-14T08:59:27;16.40;;;6.43;;
7334;SDS011;3708;42.632;23.378;2023-12-14T09:01:55;9.10;;;5.40;;
7334;SDS011;3708;42.632;23.378;2023-12-14T09:04:22;7.67;;;5.67;;
7334;SDS011;3708;42.632;23.378;2023-12-14T09:06:49;8.30;;;5.80;;
7334;SDS011;3708;42.632;23.378;2023-12-14T09:09:16;6.83;;;4.73;;
7334;SDS011;3708;42.632;23.378;2023-12-14T09:11:44;8.20;;;5.00;;
7334;SDS011;3708;42.632;23.378;2023-12-14T09:14:10;9.13;;;5.00;;
7334;SDS011;3708;42.632;23.378;2023-12-14T09:16:39;6.50;;;4.90;;
7334;SDS011;3708;42.632;23.378;2023-12-14T09:19:06;11.13;;;5.23;;
7334;SDS011;3708;42.632;23.378;2023-12-14T09:21:33;7.97;;;5.10;;
7334;SDS011;3708;42.632;23.378;2023-12-14T09:24:00;8.90;;;4.90;;
7334;SDS011;3708;42.632;23.378;2023-12-14T09:26:27;8.23;;;4.97;;
7334;SDS011;3708;42.632;23.378;2023-12-14T09:28:54;12.27;;;5.20;;
7334;SDS011;3708;42.632;23.378;2023-12-14T09:31:21;6.73;;;4.23;;
7334;SDS011;3708;42.632;23.378;2023-12-14T09:33:51;7.37;;;4.57;;
7334;SDS011;3708;42.632;23.378;2023-12-14T09:36:18;7.50;;;4.23;;
7334;SDS011;3708;42.632;23.378;2023-12-14T09:38:45;6.37;;;4.60;;
7334;SDS011;3708;42.632;23.378;2023-12-14T09:41:12;7.50;;;4.80;;
7334;SDS011;3708;42.632;23.378;2023-12-14T09:43:39;9.70;;;5.50;;
7334;SDS011;3708;42.632;23.378;2023-12-14T09:46:07;14.33;;;6.40;;
7334;SDS011;3708;42.632;23.378;2023-12-14T09:48:35;13.13;;;6.00;;
7334;SDS011;3708;42.632;23.378;2023-12-14T09:51:04;10.57;;;5.63;;
7334;SDS011;3708;42.632;23.378;2023-12-14T09:53:31;12.00;;;4.90;;
7334;SDS011;3708;42.632;23.378;2023-12-14T09:55:58;6.47;;;5.23;;
7334;SDS011;3708;42.632;23.378;2023-12-14T09:58:25;11.83;;;5.00;;
7334;SDS011;3708;42.632;23.378;2023-12-14T10:00:52;6.67;;;4.47;;
7334;SDS011;3708;42.632;23.378;2023-12-14T10:03:21;5.20;;;3.83;;
7334;SDS011;3708;42.632;23.378;2023-12-14T10:05:51;8.03;;;3.87;;
7334;SDS011;3708;42.632;23.378;2023-12-14T10:08:20;11.30;;;5.10;;
7334;SDS011;3708;42.632;23.378;2023-12-14T10:10:47;7.63;;;4.47;;
7334;SDS011;3708;42.632;23.378;2023-12-14T10:13:16;10.03;;;4.80;;
7334;SDS011;3708;42.632;23.378;2023-12-14T10:15:44;7.60;;;4.80;;
7334;SDS011;3708;42.632;23.378;2023-12-14T10:18:12;5.57;;;4.27;;
7334;SDS011;3708;42.632;23.378;2023-12-14T10:20:44;6.63;;;4.33;;
7334;SDS011;3708;42.632;23.378;2023-12-14T10:23:13;7.43;;;4.53;;
7334;SDS011;3708;42.632;23.378;2023-12-14T10:25:41;12.53;;;5.57;;
7334;SDS011;3708;42.632;23.378;2023-12-14T10:28:11;10.13;;;4.90;;
7334;SDS011;3708;42.632;23.378;2023-12-14T10:30:39;5.73;;;4.23;;
7334;SDS011;3708;42.632;23.378;2023-12-14T10:33:07;7.33;;;4.70;;
7334;SDS011;3708;42.632;23.378;2023-12-14T10:35:34;5.77;;;3.93;;
7334;SDS011;3708;42.632;23.378;2023-12-14T10:38:02;11.93;;;5.40;;
7334;SDS011;3708;42.632;23.378;2023-12-14T10:40:31;9.67;;;5.03;;
7334;SDS011;3708;42.632;23.378;2023-12-14T10:43:01;11.93;;;5.30;;
7334;SDS011;3708;42.632;23.378;2023-12-14T10:45:32;10.83;;;5.33;;
7334;SDS011;3708;42.632;23.378;2023-12-14T10:48:05;9.60;;;5.70;;
7334;SDS011;3708;42.632;23.378;2023-12-14T10:50:39;9.93;;;6.03;;
7334;SDS011;3708;42.632;23.378;2023-12-14T10:53:09;8.27;;;4.70;;
7334;SDS011;3708;42.632;23.378;2023-12-14T10:55:38;13.43;;;6.73;;
7334;SDS011;3708;42.632;23.378;2023-12-14T10:58:12;15.73;;;6.47;;
7334;SDS011;3708;42.632;23.378;2023-12-14T11:00:40;11.13;;;5.57;;
7334;SDS011;3708;42.632;23.378;2023-12-14T11:03:13;15.60;;;7.23;;
7334;SDS011;3708;42.632;23.378;2023-12-14T11:05:40;11.77;;;6.20;;
7334;SDS011;3708;42.632;23.378;2023-12-14T11:08:07;14.10;;;7.17;;
7334;SDS011;3708;42.632;23.378;2023-12-14T11:10:37;16.23;;;8.07;;
7334;SDS011;3708;42.632;23.378;2023-12-14T11:13:06;13.50;;;7.13;;
7334;SDS011;3708;42.632;23.378;2023-12-14T11:15:38;12.60;;;7.30;;
7334;SDS011;3708;42.632;23.378;2023-12-14T11:18:22;8.50;;;6.57;;
7334;SDS011;3708;42.632;23.378;2023-12-14T11:20:51;14.30;;;5.43;;
7334;SDS011;3708;42.632;23.378;2023-12-14T11:23:27;5.03;;;3.83;;
7334;SDS011;3708;42.632;23.378;2023-12-14T11:25:57;4.43;;;3.30;;
7334;SDS011;3708;42.632;23.378;2023-12-14T11:28:25;3.93;;;3.00;;
7334;SDS011;3708;42.632;23.378;2023-12-14T11:30:54;6.37;;;2.73;;
7334;SDS011;3708;42.632;23.378;2023-12-14T11:33:22;5.20;;;2.93;;
7334;SDS011;3708;42.632;23.378;2023-12-14T11:35:50;3.70;;;2.70;;
7334;SDS011;3708;42.632;23.378;2023-12-14T11:38:18;6.50;;;2.57;;
7334;SDS011;3708;42.632;23.378;2023-12-14T11:40:46;3.50;;;2.50;;
7334;SDS011;3708;42.632;23.378;2023-12-14T11:43:14;6.23;;;2.17;;
7334;SDS011;3708;42.632;23.378;2023-12-14T11:45:41;3.57;;;2.00;;
7334;SDS011;3708;42.632;23.378;2023-12-14T11:48:11;1.83;;;1.70;;
7334;SDS011;3708;42.632;23.378;2023-12-14T11:50:39;2.60;;;2.03;;
7334;SDS011;3708;42.632;23.378;2023-12-14T11:53:08;2.87;;;1.80;;
7334;SDS011;3708;42.632;23.378;2023-12-14T11:55:35;3.13;;;1.93;;
7334;SDS011;3708;42.632;23.378;2023-12-14T11:58:05;4.07;;;1.93;;
7334;SDS011;3708;42.632;23.378;2023-12-14T12:00:33;2.27;;;1.80;;
7334;SDS011;3708;42.632;23.378;2023-12-14T12:03:14;1.77;;;1.40;;
7334;SDS011;3708;42.632;23.378;2023-12-14T12:05:43;4.57;;;1.83;;
7334;SDS011;3708;42.632;23.378;2023-12-14T12:08:12;4.47;;;1.73;;
7334;SDS011;3708;42.632;23.378;2023-12-14T12:10:40;2.67;;;1.60;;
7334;SDS011;3708;42.632;23.378;2023-12-14T12:13:11;1.70;;;1.47;;
7334;SDS011;3708;42.632;23.378;2023-12-14T12:15:39;1.60;;;1.50;;
7334;SDS011;3708;42.632;23.378;2023-12-14T12:18:06;2.13;;;1.50;;
7334;SDS011;3708;42.632;23.378;2023-12-14T12:20:36;1.90;;;1.10;;
7334;SDS011;3708;42.632;23.378;2023-12-14T12:23:03;2.93;;;1.40;;
7334;SDS011;3708;42.632;23.378;2023-12-14T12:25:30;2.47;;;1.37;;
7334;SDS011;3708;42.632;23.378;2023-12-14T12:27:57;1.43;;;1.20;;
7334;SDS011;3708;42.632;23.378;2023-12-14T12:30:25;2.47;;;1.27;;
7334;SDS011;3708;42.632;23.378;2023-12-14T12:32:52;2.43;;;1.30;;
7334;SDS011;3708;42.632;23.378;2023-12-14T12:35:20;1.13;;;1.03;;
7334;SDS011;3708;42.632;23.378;2023-12-14T12:37:49;5.53;;;1.20;;
7334;SDS011;3708;42.632;23.378;2023-12-14T12:40:19;1.30;;;1.20;;
7334;SDS011;3708;42.632;23.378;2023-12-14T12:42:51;7.10;;;1.40;;
7334;SDS011;3708;42.632;23.378;2023-12-14T12:45:24;3.00;;;1.10;;
7334;SDS011;3708;42.632;23.378;2023-12-14T12:47:53;2.10;;;1.47;;
7334;SDS011;3708;42.632;23.378;2023-12-14T12:50:20;0.90;;;0.90;;
7334;SDS011;3708;42.632;23.378;2023-12-14T12:52:47;1.30;;;1.10;;
7334;SDS011;3708;42.632;23.378;2023-12-14T12:55:16;1.10;;;1.00;;
7334;SDS011;3708;42.632;23.378;2023-12-14T12:57:43;3.87;;;1.30;;
7334;SDS011;3708;42.632;23.378;2023-12-14T13:00:11;2.10;;;1.30;;
7334;SDS011;3708;42.632;23.378;2023-12-14T13:02:38;2.97;;;0.90;;
7334;SDS011;3708;42.632;23.378;2023-12-14T13:05:06;2.87;;;1.20;;
7334;SDS011;3708;42.632;23.378;2023-12-14T13:07:34;1.33;;;1.10;;
7334;SDS011;3708;42.632;23.378;2023-12-14T13:10:01;1.40;;;1.00;;
7334;SDS011;3708;42.632;23.378;2023-12-14T13:12:30;6.30;;;1.40;;
7334;SDS011;3708;42.632;23.378;2023-12-14T13:14:57;3.50;;;1.10;;
7334;SDS011;3708;42.632;23.378;2023-12-14T13:17:24;0.93;;;0.90;;
7334;SDS011;3708;42.632;23.378;2023-12-14T13:19:51;2.37;;;1.10;;
7334;SDS011;3708;42.632;23.378;2023-12-14T13:22:19;2.00;;;1.40;;
7334;SDS011;3708;42.632;23.378;2023-12-14T13:24:46;3.17;;;1.37;;
7334;SDS011;3708;42.632;23.378;2023-12-14T13:27:13;1.77;;;1.23;;
7334;SDS011;3708;42.632;23.378;2023-12-14T13:29:41;1.40;;;1.30;;
7334;SDS011;3708;42.632;23.378;2023-12-14T13:32:10;1.53;;;1.20;;
7334;SDS011;3708;42.632;23.378;2023-12-14T13:34:37;3.37;;;1.20;;
7334;SDS011;3708;42.632;23.378;2023-12-14T13:37:04;2.77;;;1.30;;
7334;SDS011;3708;42.632;23.378;2023-12-14T13:39:34;3.33;;;1.50;;
7334;SDS011;3708;42.632;23.378;2023-12-14T13:42:03;2.30;;;1.50;;
7334;SDS011;3708;42.632;23.378;2023-12-14T13:44:31;1.40;;;1.30;;
7334;SDS011;3708;42.632;23.378;2023-12-14T13:47:01;6.17;;;1.30;;
7334;SDS011;3708;42.632;23.378;2023-12-14T13:49:28;1.20;;;1.10;;
7334;SDS011;3708;42.632;23.378;2023-12-14T13:51:55;3.73;;;2.07;;
7334;SDS011;3708;42.632;23.378;2023-12-14T13:54:22;4.60;;;1.30;;
7334;SDS011;3708;42.632;23.378;2023-12-14T13:56:50;1.00;;;1.00;;
7334;SDS011;3708;42.632;23.378;2023-12-14T13:59:18;0.90;;;0.90;;
7334;SDS011;3708;42.632;23.378;2023-12-14T14:01:45;1.23;;;1.03;;
7334;SDS011;3708;42.632;23.378;2023-12-14T14:04:17;2.97;;;1.03;;
7334;SDS011;3708;42.632;23.378;2023-12-14T14:06:44;1.90;;;1.17;;
7334;SDS011;3708;42.632;23.378;2023-12-14T14:09:11;2.10;;;1.13;;
7334;SDS011;3708;42.632;23.378;2023-12-14T14:11:39;1.47;;;1.20;;
7334;SDS011;3708;42.632;23.378;2023-12-14T14:14:10;1.37;;;1.03;;
7334;SDS011;3708;42.632;23.378;2023-12-14T14:16:37;4.23;;;1.30;;
7334;SDS011;3708;42.632;23.378;2023-12-14T14:19:04;1.10;;;1.00;;
7334;SDS011;3708;42.632;23.378;2023-12-14T14:21:33;1.40;;;1.00;;
7334;SDS011;3708;42.632;23.378;2023-12-14T14:24:00;1.57;;;1.10;;
7334;SDS011;3708;42.632;23.378;2023-12-14T14:26:27;2.80;;;1.30;;
7334;SDS011;3708;42.632;23.378;2023-12-14T14:28:55;1.50;;;1.00;;
7334;SDS011;3708;42.632;23.378;2023-12-14T14:31:26;1.57;;;0.90;;
7334;SDS011;3708;42.632;23.378;2023-12-14T14:33:57;1.07;;;0.90;;
7334;SDS011;3708;42.632;23.378;2023-12-14T14:36:24;2.40;;;1.20;;
7334;SDS011;3708;42.632;23.378;2023-12-14T14:38:53;1.70;;;1.53;;
7334;SDS011;3708;42.632;23.378;2023-12-14T14:41:22;2.00;;;1.10;;
7334;SDS011;3708;42.632;23.378;2023-12-14T14:43:49;2.87;;;1.50;;
7334;SDS011;3708;42.632;23.378;2023-12-14T14:46:15;2.53;;;1.60;;
7334;SDS011;3708;42.632;23.378;2023-12-14T14:48:43;1.57;;;1.20;;
7334;SDS011;3708;42.632;23.378;2023-12-14T14:51:27;1.50;;;1.20;;
7334;SDS011;3708;42.632;23.378;2023-12-14T14:53:56;2.27;;;1.43;;
7334;SDS011;3708;42.632;23.378;2023-12-14T14:56:23;6.17;;;1.50;;